Time;durP1;ratioP1;P1;durP2;ratioP2;P2;SDS_P1;SDS_P2;PMS_P1;PMS_P2;Temp;Humidity;BMP_temperature;BMP_pressure;BME280_temperature;BME280_humidity;BME280_pressure;Samples;Min_cycle;Max_cycle;Signal;HPM_P1;HPM_P2
2021/06/07 00:01:54;;;;;;;11.80;7.35;;;;;;;;;;5091193;28;20031;-73
2021/06/07 00:04:21;;;;;;;8.85;7.13;;;;;;;;;;5090390;28;20519;-74
2021/06/07 00:06:47;;;;;;;9.50;6.63;;;;;;;;;;5104283;28;20032;-75
2021/06/07 00:09:14;;;;;;;9.02;6.45;;;;;;;;;;5110325;28;20764;-74
2021/06/07 00:11:42;;;;;;;9.48;6.68;;;;;;;;;;5107186;28;20421;-73
2021/06/07 00:14:08;;;;;;;6.88;5.93;;;;;;;;;;5102131;28;20494;-73
2021/06/07 00:16:35;;;;;;;11.13;6.30;;;;;;;;;;5095282;28;20067;-72
2021/06/07 00:19:01;;;;;;;9.85;6.25;;;;;;;;;;5089597;28;20032;-73
2021/06/07 00:21:29;;;;;;;10.52;6.75;;;;;;;;;;5101201;28;20513;-71
2021/06/07 00:23:56;;;;;;;10.10;6.75;;;;;;;;;;5104280;28;20070;-72
2021/06/07 00:26:23;;;;;;;10.35;6.45;;;;;;;;;;5091438;28;20574;-74
2021/06/07 00:28:49;;;;;;;9.65;6.72;;;;;;;;;;5104172;28;20036;-73
2021/06/07 00:31:15;;;;;;;11.02;7.25;;;;;;;;;;5089660;28;20425;-73
2021/06/07 00:33:42;;;;;;;9.02;6.22;;;;;;;;;;5090057;28;20536;-74
2021/06/07 00:36:08;;;;;;;7.55;6.10;;;;;;;;;;5090891;28;20436;-73
2021/06/07 00:38:35;;;;;;;8.20;5.93;;;;;;;;;;5103704;28;20032;-73
2021/06/07 00:41:03;;;;;;;9.90;6.22;;;;;;;;;;5098902;28;20038;-71
2021/06/07 00:43:29;;;;;;;9.90;5.68;;;;;;;;;;5096870;28;20043;-73
2021/06/07 00:45:55;;;;;;;8.32;5.78;;;;;;;;;;5099361;28;20032;-74
2021/06/07 00:48:21;;;;;;;8.02;5.97;;;;;;;;;;5106675;28;20028;-74
2021/06/07 00:50:55;;;;;;;7.00;5.53;;;;;;;;;;5105854;28;20023;-73
2021/06/07 00:53:21;;;;;;;9.90;5.85;;;;;;;;;;5088945;28;20028;-74
2021/06/07 00:55:51;;;;;;;8.50;5.70;;;;;;;;;;5077735;28;20422;-74
2021/06/07 00:58:18;;;;;;;8.63;6.05;;;;;;;;;;5088876;28;20491;-74
2021/06/07 01:00:44;;;;;;;11.55;6.10;;;;;;;;;;5091978;28;20063;-74
2021/06/07 01:03:17;;;;;;;8.45;5.45;;;;;;;;;;5103537;28;20740;-74
2021/06/07 01:05:45;;;;;;;6.20;4.97;;;;;;;;;;5095164;28;20024;-73
2021/06/07 01:08:11;;;;;;;7.63;5.43;;;;;;;;;;5088554;28;20028;-73
2021/06/07 01:10:37;;;;;;;9.20;6.70;;;;;;;;;;5088841;28;20130;-74
2021/06/07 01:13:04;;;;;;;8.98;6.00;;;;;;;;;;5088263;28;20083;-72
2021/06/07 01:15:30;;;;;;;8.90;6.22;;;;;;;;;;5078672;28;20059;-73
2021/06/07 01:17:57;;;;;;;8.57;6.90;;;;;;;;;;5074744;28;20040;-74
2021/06/07 01:20:24;;;;;;;9.40;6.70;;;;;;;;;;5068668;28;20055;-75
2021/06/07 01:22:51;;;;;;;7.93;5.90;;;;;;;;;;5082488;28;20161;-74
2021/06/07 01:25:37;;;;;;;8.60;6.72;;;;;;;;;;5079654;28;20032;-72
2021/06/07 01:28:07;;;;;;;9.52;6.70;;;;;;;;;;5068146;28;20682;-74
2021/06/07 01:30:35;;;;;;;11.25;6.95;;;;;;;;;;5066894;28;20029;-73
2021/06/07 01:33:01;;;;;;;11.00;6.60;;;;;;;;;;5071773;28;20044;-72
2021/06/07 01:35:28;;;;;;;10.30;7.45;;;;;;;;;;5075697;28;20036;-74
2021/06/07 01:37:55;;;;;;;8.35;6.20;;;;;;;;;;5073487;28;20073;-73
2021/06/07 01:40:23;;;;;;;10.18;6.28;;;;;;;;;;5088890;28;20020;-74
2021/06/07 01:42:49;;;;;;;8.95;6.88;;;;;;;;;;5081615;28;20127;-74
2021/06/07 01:45:17;;;;;;;10.02;7.20;;;;;;;;;;5072312;28;20024;-75
2021/06/07 01:47:43;;;;;;;12.68;7.35;;;;;;;;;;5078816;28;20028;-73
2021/06/07 01:50:10;;;;;;;10.07;7.40;;;;;;;;;;5088435;28;20054;-74
2021/06/07 01:52:43;;;;;;;11.38;7.82;;;;;;;;;;5087395;28;20028;-71
2021/06/07 01:55:10;;;;;;;12.10;7.60;;;;;;;;;;5086921;28;20506;-74
2021/06/07 01:57:36;;;;;;;9.70;7.60;;;;;;;;;;5067849;28;20045;-74
2021/06/07 02:00:05;;;;;;;11.75;7.80;;;;;;;;;;5068005;28;20028;-74
2021/06/07 02:02:31;;;;;;;13.07;8.45;;;;;;;;;;5067557;28;20033;-74
2021/06/07 02:04:57;;;;;;;13.23;8.65;;;;;;;;;;5071168;28;20390;-73
2021/06/07 02:07:23;;;;;;;11.50;8.27;;;;;;;;;;5070922;28;20035;-72
2021/06/07 02:09:49;;;;;;;14.07;8.50;;;;;;;;;;5067441;28;20028;-73
2021/06/07 02:12:15;;;;;;;11.55;8.23;;;;;;;;;;5067958;28;20613;-73
2021/06/07 02:14:41;;;;;;;13.88;8.52;;;;;;;;;;5084694;28;20082;-72
2021/06/07 02:17:07;;;;;;;11.00;8.50;;;;;;;;;;5099542;28;20038;-73
2021/06/07 02:19:33;;;;;;;12.55;8.55;;;;;;;;;;5091507;28;20517;-72
2021/06/07 02:21:59;;;;;;;9.57;7.80;;;;;;;;;;5096970;28;20737;-73
2021/06/07 02:24:25;;;;;;;11.93;7.75;;;;;;;;;;5091594;28;20528;-73
2021/06/07 02:26:51;;;;;;;10.23;7.45;;;;;;;;;;5091323;28;20166;-73
2021/06/07 02:29:18;;;;;;;19.98;9.15;;;;;;;;;;5098906;28;20517;-73
2021/06/07 02:31:44;;;;;;;13.80;7.78;;;;;;;;;;5096326;28;20489;-72
2021/06/07 02:34:11;;;;;;;13.07;8.25;;;;;;;;;;5092149;28;20052;-74
2021/06/07 02:36:39;;;;;;;10.30;8.05;;;;;;;;;;5091069;28;20634;-73
2021/06/07 02:39:07;;;;;;;14.05;7.90;;;;;;;;;;5100469;28;20032;-74
2021/06/07 02:41:33;;;;;;;10.63;8.27;;;;;;;;;;5106238;28;20040;-74
2021/06/07 02:43:59;;;;;;;9.85;7.72;;;;;;;;;;5105638;27;20035;-73
2021/06/07 02:46:25;;;;;;;12.00;7.60;;;;;;;;;;5106609;27;20096;-72
2021/06/07 02:48:51;;;;;;;8.18;7.18;;;;;;;;;;5101178;28;20032;-73
2021/06/07 02:51:18;;;;;;;10.65;7.93;;;;;;;;;;5108785;28;20030;-73
2021/06/07 02:53:44;;;;;;;10.57;6.55;;;;;;;;;;5096733;28;20032;-73
2021/06/07 02:56:10;;;;;;;11.68;7.45;;;;;;;;;;5100428;28;20640;-73
2021/06/07 02:58:36;;;;;;;11.75;8.00;;;;;;;;;;5092640;28;20027;-74
2021/06/07 03:01:10;;;;;;;11.90;7.60;;;;;;;;;;5100521;28;20059;-74
2021/06/07 03:03:36;;;;;;;9.60;7.35;;;;;;;;;;5094577;28;20058;-72
2021/06/07 03:06:03;;;;;;;9.02;7.60;;;;;;;;;;5096519;28;20052;-73
2021/06/07 03:08:32;;;;;;;9.68;6.80;;;;;;;;;;5109676;28;20160;-74
2021/06/07 03:10:59;;;;;;;9.50;7.13;;;;;;;;;;5097104;28;20028;-73
2021/06/07 03:13:25;;;;;;;10.98;6.72;;;;;;;;;;5090653;28;20074;-72
2021/06/07 03:15:53;;;;;;;12.75;7.57;;;;;;;;;;5091281;28;20639;-74
2021/06/07 03:18:19;;;;;;;8.70;7.45;;;;;;;;;;5104789;28;20027;-73
2021/06/07 03:20:45;;;;;;;11.73;7.47;;;;;;;;;;5089728;28;20040;-73
2021/06/07 03:23:13;;;;;;;8.23;6.50;;;;;;;;;;5105239;28;20035;-73
2021/06/07 03:25:40;;;;;;;8.45;7.28;;;;;;;;;;5101655;28;20051;-72
2021/06/07 03:28:06;;;;;;;11.95;7.57;;;;;;;;;;5090013;28;20461;-73
2021/06/07 03:30:32;;;;;;;11.07;6.93;;;;;;;;;;5090012;28;20058;-73
2021/06/07 03:32:58;;;;;;;9.15;6.60;;;;;;;;;;5095628;28;20105;-73
2021/06/07 03:35:24;;;;;;;11.50;7.75;;;;;;;;;;5093584;28;20020;-73
2021/06/07 03:37:51;;;;;;;12.88;8.10;;;;;;;;;;5090395;28;20028;-72
2021/06/07 03:40:19;;;;;;;9.73;8.50;;;;;;;;;;5092622;28;20035;-72
2021/06/07 03:42:46;;;;;;;13.23;8.00;;;;;;;;;;5090252;28;20518;-72
2021/06/07 03:45:13;;;;;;;10.75;9.15;;;;;;;;;;5099232;28;20049;-73
2021/06/07 03:47:39;;;;;;;11.85;7.90;;;;;;;;;;5108963;28;20036;-74
2021/06/07 03:50:06;;;;;;;12.88;8.43;;;;;;;;;;5110314;28;20030;-74
2021/06/07 03:52:32;;;;;;;14.10;7.72;;;;;;;;;;5097393;28;20085;-72
2021/06/07 03:54:58;;;;;;;10.55;8.00;;;;;;;;;;5071394;28;20035;-73
2021/06/07 03:57:24;;;;;;;10.65;8.50;;;;;;;;;;5106652;28;20096;-73
2021/06/07 03:59:51;;;;;;;14.93;8.50;;;;;;;;;;5094385;28;20043;-73
2021/06/07 04:02:19;;;;;;;13.15;8.23;;;;;;;;;;5089333;28;20085;-73
2021/06/07 04:04:45;;;;;;;9.80;7.57;;;;;;;;;;5089968;28;20093;-72
2021/06/07 04:07:11;;;;;;;10.70;6.78;;;;;;;;;;5095115;28;20036;-74
2021/06/07 04:09:39;;;;;;;11.38;7.20;;;;;;;;;;5089877;28;20026;-73
2021/06/07 04:12:06;;;;;;;11.77;7.65;;;;;;;;;;5070852;28;20028;-74
2021/06/07 04:14:32;;;;;;;9.32;6.60;;;;;;;;;;5104717;28;20382;-73
2021/06/07 04:16:59;;;;;;;7.85;6.32;;;;;;;;;;5094115;28;20383;-71
2021/06/07 04:19:25;;;;;;;9.40;7.32;;;;;;;;;;5104331;28;20094;-73
2021/06/07 04:21:51;;;;;;;9.55;7.47;;;;;;;;;;5104609;28;20032;-74
2021/06/07 04:24:17;;;;;;;9.70;7.65;;;;;;;;;;5089719;28;20031;-73
2021/06/07 04:26:43;;;;;;;8.15;6.82;;;;;;;;;;5089482;28;20410;-72
2021/06/07 04:29:09;;;;;;;11.05;6.90;;;;;;;;;;5089530;28;20028;-74
2021/06/07 04:31:35;;;;;;;9.00;6.28;;;;;;;;;;5091952;28;20103;-73
2021/06/07 04:34:01;;;;;;;8.75;6.78;;;;;;;;;;5096115;28;20036;-72
2021/06/07 04:36:27;;;;;;;8.07;6.22;;;;;;;;;;5099903;28;20080;-73
2021/06/07 04:38:53;;;;;;;8.40;6.32;;;;;;;;;;5096397;28;20028;-73
2021/06/07 04:41:20;;;;;;;10.75;6.93;;;;;;;;;;5089085;28;20445;-74
2021/06/07 04:43:46;;;;;;;8.10;6.00;;;;;;;;;;5093925;28;20124;-71
2021/06/07 04:46:12;;;;;;;13.57;7.18;;;;;;;;;;5106354;28;20556;-72
2021/06/07 04:48:39;;;;;;;9.05;6.28;;;;;;;;;;5104290;28;20393;-72
2021/06/07 04:51:05;;;;;;;7.97;6.57;;;;;;;;;;5109024;28;20030;-73
2021/06/07 04:53:31;;;;;;;9.15;5.97;;;;;;;;;;5108372;28;20574;-72
2021/06/07 04:55:57;;;;;;;14.20;7.00;;;;;;;;;;5101212;28;20036;-74
2021/06/07 04:58:26;;;;;;;9.70;6.50;;;;;;;;;;5102112;28;20028;-70
2021/06/07 05:00:54;;;;;;;10.02;7.03;;;;;;;;;;5096503;28;20020;-72
2021/06/07 05:03:20;;;;;;;11.65;6.80;;;;;;;;;;5070455;28;20535;-72
2021/06/07 05:05:46;;;;;;;8.80;6.80;;;;;;;;;;5089126;28;20024;-72
2021/06/07 05:08:13;;;;;;;7.78;6.97;;;;;;;;;;5092090;28;20028;-73
2021/06/07 05:10:39;;;;;;;8.30;6.38;;;;;;;;;;5088554;28;20076;-72
2021/06/07 05:13:05;;;;;;;10.63;6.50;;;;;;;;;;5088559;28;20035;-73
2021/06/07 05:15:32;;;;;;;7.10;5.50;;;;;;;;;;5093581;28;20048;-72
2021/06/07 05:17:58;;;;;;;8.77;6.85;;;;;;;;;;5095783;28;20036;-73
2021/06/07 05:20:26;;;;;;;9.80;5.40;;;;;;;;;;5109375;28;20028;-73
2021/06/07 05:22:54;;;;;;;7.90;5.13;;;;;;;;;;5100440;28;20028;-71
2021/06/07 05:25:21;;;;;;;7.18;4.75;;;;;;;;;;5082469;28;20058;-70
2021/06/07 05:27:48;;;;;;;6.32;3.58;;;;;;;;;;5104667;28;20051;-72
2021/06/07 05:30:14;;;;;;;6.90;3.95;;;;;;;;;;5105660;28;20050;-73
2021/06/07 05:32:40;;;;;;;7.45;4.35;;;;;;;;;;5107837;28;20683;-73
2021/06/07 05:35:07;;;;;;;8.45;4.93;;;;;;;;;;5092062;28;20115;-72
2021/06/07 05:37:34;;;;;;;8.35;3.67;;;;;;;;;;5069181;28;20039;-73
2021/06/07 05:40:00;;;;;;;5.15;4.53;;;;;;;;;;5094120;28;20031;-73
2021/06/07 05:42:27;;;;;;;7.13;3.95;;;;;;;;;;5108119;28;20028;-72
2021/06/07 05:44:53;;;;;;;4.85;3.90;;;;;;;;;;5108259;28;20020;-72
2021/06/07 05:47:19;;;;;;;6.95;3.80;;;;;;;;;;5108998;28;20034;-74
2021/06/07 05:49:45;;;;;;;6.45;3.45;;;;;;;;;;5091144;28;20076;-72
2021/06/07 05:52:12;;;;;;;5.85;5.30;;;;;;;;;;5094539;28;20028;-74
2021/06/07 05:54:39;;;;;;;8.57;3.53;;;;;;;;;;5112366;28;20020;-73
2021/06/07 05:57:06;;;;;;;4.82;3.15;;;;;;;;;;5109701;28;20054;-71
2021/06/07 05:59:35;;;;;;;4.57;3.42;;;;;;;;;;5112713;28;20031;-74
2021/06/07 06:02:01;;;;;;;6.72;3.30;;;;;;;;;;5103010;28;20111;-73
2021/06/07 06:04:27;;;;;;;5.53;2.90;;;;;;;;;;5076821;28;20031;-74
2021/06/07 06:06:53;;;;;;;3.92;3.33;;;;;;;;;;5092438;28;20557;-74
2021/06/07 06:09:19;;;;;;;5.20;3.13;;;;;;;;;;5102281;28;20066;-75
2021/06/07 06:11:45;;;;;;;4.72;3.22;;;;;;;;;;5111742;28;20027;-72
2021/06/07 06:14:12;;;;;;;3.95;3.13;;;;;;;;;;5102547;28;20464;-72
2021/06/07 06:16:38;;;;;;;4.70;3.28;;;;;;;;;;5090741;28;20036;-71
2021/06/07 06:19:04;;;;;;;8.00;3.03;;;;;;;;;;5090298;28;20039;-72
2021/06/07 06:21:31;;;;;;;5.50;3.03;;;;;;;;;;5102442;28;20035;-73
2021/06/07 06:23:57;;;;;;;5.90;3.20;;;;;;;;;;5091913;28;20139;-72
2021/06/07 06:26:23;;;;;;;5.88;3.15;;;;;;;;;;5110916;28;20077;-72
2021/06/07 06:28:50;;;;;;;5.47;2.78;;;;;;;;;;5111272;28;20030;-73
2021/06/07 06:31:16;;;;;;;5.72;3.42;;;;;;;;;;5093056;28;20371;-73
2021/06/07 06:33:43;;;;;;;6.72;3.20;;;;;;;;;;5108295;28;20378;-73
2021/06/07 06:36:09;;;;;;;4.13;3.33;;;;;;;;;;5091794;28;20036;-73
2021/06/07 06:38:36;;;;;;;4.53;3.00;;;;;;;;;;5073541;28;20028;-74
2021/06/07 06:41:03;;;;;;;8.07;3.30;;;;;;;;;;5091936;28;20059;-74
2021/06/07 06:43:29;;;;;;;3.05;2.70;;;;;;;;;;5091805;28;20032;-72
2021/06/07 06:45:55;;;;;;;4.90;2.72;;;;;;;;;;5091484;28;20055;-73
2021/06/07 06:48:21;;;;;;;5.05;2.90;;;;;;;;;;5091783;28;20418;-74
2021/06/07 06:50:47;;;;;;;4.97;3.10;;;;;;;;;;5091290;28;20038;-72
2021/06/07 06:53:16;;;;;;;6.75;3.35;;;;;;;;;;5109240;28;20053;-73
2021/06/07 06:55:43;;;;;;;4.18;2.65;;;;;;;;;;5105786;28;20140;-73
2021/06/07 06:58:09;;;;;;;5.63;2.78;;;;;;;;;;5072890;28;20374;-73
2021/06/07 07:00:36;;;;;;;3.47;3.15;;;;;;;;;;5090526;28;20103;-74
2021/06/07 07:03:09;;;;;;;7.85;3.20;;;;;;;;;;5091000;28;20043;-73
2021/06/07 07:05:35;;;;;;;6.18;3.17;;;;;;;;;;5102411;28;20026;-73
2021/06/07 07:08:01;;;;;;;4.80;2.95;;;;;;;;;;5111479;28;20061;-72
2021/06/07 07:10:28;;;;;;;7.82;3.28;;;;;;;;;;5096285;28;20583;-73
2021/06/07 07:12:54;;;;;;;5.82;2.75;;;;;;;;;;5101288;28;20506;-72
2021/06/07 07:15:20;;;;;;;4.07;2.67;;;;;;;;;;5102826;28;20067;-72
2021/06/07 07:17:47;;;;;;;5.05;3.00;;;;;;;;;;5094272;28;20107;-73
2021/06/07 07:20:13;;;;;;;6.13;3.28;;;;;;;;;;5094667;28;20081;-73
2021/06/07 07:22:40;;;;;;;8.57;3.47;;;;;;;;;;5091780;28;20114;-73
2021/06/07 07:25:07;;;;;;;4.20;2.80;;;;;;;;;;5102931;28;20650;-72
2021/06/07 07:27:35;;;;;;;8.25;3.97;;;;;;;;;;5093238;28;20399;-75
2021/06/07 07:30:05;;;;;;;3.55;3.17;;;;;;;;;;5104445;28;20020;-71
2021/06/07 07:32:31;;;;;;;6.15;3.05;;;;;;;;;;5086976;28;20043;-72
2021/06/07 07:34:57;;;;;;;4.55;3.53;;;;;;;;;;5085315;28;20030;-71
2021/06/07 07:37:23;;;;;;;6.70;3.25;;;;;;;;;;5096643;28;20055;-73
2021/06/07 07:39:49;;;;;;;6.00;2.85;;;;;;;;;;5094048;28;20070;-72
2021/06/07 07:42:15;;;;;;;3.45;2.60;;;;;;;;;;5091254;28;20051;-73
2021/06/07 07:44:42;;;;;;;5.90;2.65;;;;;;;;;;5099437;28;20063;-73
2021/06/07 07:47:08;;;;;;;9.00;3.15;;;;;;;;;;5091207;28;20031;-72
2021/06/07 07:49:37;;;;;;;4.97;2.50;;;;;;;;;;5075366;28;20387;-71
2021/06/07 07:52:04;;;;;;;12.40;4.10;;;;;;;;;;5087882;28;20387;-72
2021/06/07 07:54:31;;;;;;;7.90;3.22;;;;;;;;;;5090643;28;20028;-66
2021/06/07 07:56:57;;;;;;;6.05;2.95;;;;;;;;;;5098330;28;20024;-72
2021/06/07 07:59:23;;;;;;;4.82;2.78;;;;;;;;;;5096259;28;20035;-72
2021/06/07 08:01:50;;;;;;;4.88;2.88;;;;;;;;;;5099870;28;20039;-71
2021/06/07 08:04:16;;;;;;;5.35;2.63;;;;;;;;;;5087915;28;20167;-71
2021/06/07 08:06:44;;;;;;;5.50;2.83;;;;;;;;;;5092968;28;20020;-70
2021/06/07 08:09:10;;;;;;;5.82;3.30;;;;;;;;;;5102217;28;20020;-71
2021/06/07 08:11:36;;;;;;;5.03;3.15;;;;;;;;;;5086525;28;20078;-71
2021/06/07 08:14:03;;;;;;;5.18;3.28;;;;;;;;;;5097967;28;20051;-72
2021/06/07 08:16:29;;;;;;;6.75;3.00;;;;;;;;;;5096298;28;20094;-73
2021/06/07 08:18:55;;;;;;;4.43;2.83;;;;;;;;;;5068954;28;20024;-73
2021/06/07 08:21:21;;;;;;;6.50;3.00;;;;;;;;;;5096445;28;20086;-73
2021/06/07 08:23:47;;;;;;;4.97;3.30;;;;;;;;;;5101693;28;20030;-72
2021/06/07 08:26:13;;;;;;;4.75;2.90;;;;;;;;;;5089310;28;20024;-71
2021/06/07 08:28:39;;;;;;;6.43;3.13;;;;;;;;;;5103700;28;20497;-73
2021/06/07 08:31:05;;;;;;;5.30;3.35;;;;;;;;;;5102328;28;20414;-73
2021/06/07 08:33:35;;;;;;;7.97;3.17;;;;;;;;;;5094959;28;20040;-72
2021/06/07 08:36:02;;;;;;;4.88;3.10;;;;;;;;;;5087750;28;20028;-74
2021/06/07 08:38:28;;;;;;;5.05;3.40;;;;;;;;;;5088145;28;20076;-72
2021/06/07 08:40:54;;;;;;;3.47;2.90;;;;;;;;;;5088158;28;20107;-72
2021/06/07 08:43:21;;;;;;;4.00;3.15;;;;;;;;;;5087253;28;20042;-72
2021/06/07 08:45:48;;;;;;;6.38;3.85;;;;;;;;;;5086827;28;20032;-72
2021/06/07 08:48:15;;;;;;;6.10;3.50;;;;;;;;;;5100882;28;20367;-71
2021/06/07 08:50:41;;;;;;;4.15;3.58;;;;;;;;;;5098296;28;20028;-71
2021/06/07 08:53:07;;;;;;;5.15;3.30;;;;;;;;;;5088523;28;20502;-72
2021/06/07 08:55:34;;;;;;;5.57;3.22;;;;;;;;;;5089443;28;20400;-72
2021/06/07 08:58:03;;;;;;;5.05;3.17;;;;;;;;;;5098762;28;20039;-71
2021/06/07 09:00:37;;;;;;;8.57;3.45;;;;;;;;;;5089945;28;20059;-71
2021/06/07 09:03:05;;;;;;;3.42;3.13;;;;;;;;;;5098885;28;20036;-72
2021/06/07 09:05:32;;;;;;;8.55;3.65;;;;;;;;;;5094466;28;20056;-71
2021/06/07 09:08:03;;;;;;;8.68;3.22;;;;;;;;;;5100915;28;20351;-71
2021/06/07 09:10:31;;;;;;;6.90;3.30;;;;;;;;;;5100223;28;20033;-71
2021/06/07 09:12:59;;;;;;;4.13;3.10;;;;;;;;;;5072901;28;20094;-71
2021/06/07 09:15:29;;;;;;;3.80;2.88;;;;;;;;;;5093570;28;20044;-72
2021/06/07 09:17:56;;;;;;;6.50;3.10;;;;;;;;;;5086556;28;20028;-72
2021/06/07 09:20:22;;;;;;;3.67;2.70;;;;;;;;;;5091073;28;20036;-72
2021/06/07 09:22:49;;;;;;;5.90;2.88;;;;;;;;;;5093772;28;20441;-72
2021/06/07 09:25:16;;;;;;;4.75;3.40;;;;;;;;;;5093226;28;20027;-71
2021/06/07 09:28:04;;;;;;;3.25;2.63;;;;;;;;;;5101532;28;20032;-72
2021/06/07 09:30:41;;;;;;;5.05;3.28;;;;;;;;;;5091455;28;20491;-71
2021/06/07 09:33:19;;;;;;;3.72;2.80;;;;;;;;;;5090779;28;20566;-71
2021/06/07 09:35:46;;;;;;;3.60;3.10;;;;;;;;;;5110528;28;20144;-71
2021/06/07 09:38:12;;;;;;;4.47;3.00;;;;;;;;;;5100333;28;20120;-71
2021/06/07 09:40:39;;;;;;;4.47;3.80;;;;;;;;;;5089613;28;20035;-71
2021/06/07 09:43:05;;;;;;;4.72;4.10;;;;;;;;;;5102347;28;20367;-72
2021/06/07 09:45:55;;;;;;;4.45;3.30;;;;;;;;;;5110460;28;20032;-72
2021/06/07 09:48:27;;;;;;;5.15;3.17;;;;;;;;;;5108751;28;20034;-72
2021/06/07 09:50:55;;;;;;;4.60;3.13;;;;;;;;;;5108192;28;20020;-74
2021/06/07 09:53:40;;;;;;;3.97;3.50;;;;;;;;;;5090751;28;20031;-71
2021/06/07 09:56:06;;;;;;;3.27;2.93;;;;;;;;;;5099703;28;20390;-72
2021/06/07 09:58:32;;;;;;;5.32;3.17;;;;;;;;;;5098036;28;20268;-70
2021/06/07 10:00:58;;;;;;;4.28;2.90;;;;;;;;;;5098870;28;20443;-71
2021/06/07 10:03:28;;;;;;;3.65;2.70;;;;;;;;;;5100635;28;20051;-72
2021/06/07 10:06:16;;;;;;;5.75;2.90;;;;;;;;;;5097437;28;20051;-72
2021/06/07 10:08:43;;;;;;;5.30;2.90;;;;;;;;;;5089758;28;20028;-74
2021/06/07 10:11:22;;;;;;;3.70;3.03;;;;;;;;;;5096881;28;20020;-72
2021/06/07 10:13:49;;;;;;;3.67;2.90;;;;;;;;;;5110134;28;20070;-71
2021/06/07 10:16:15;;;;;;;4.20;2.53;;;;;;;;;;5105694;28;20813;-72
2021/06/07 10:18:41;;;;;;;3.65;2.45;;;;;;;;;;5092924;28;20036;-73
2021/06/07 10:21:10;;;;;;;4.60;2.60;;;;;;;;;;5089829;28;20032;-71
2021/06/07 10:23:36;;;;;;;4.18;2.72;;;;;;;;;;5102009;28;20028;-72
2021/06/07 10:26:04;;;;;;;4.97;2.90;;;;;;;;;;5102619;28;20027;-71
2021/06/07 10:28:34;;;;;;;3.13;2.50;;;;;;;;;;5103163;28;20061;-71
2021/06/07 10:31:14;;;;;;;5.03;3.58;;;;;;;;;;5102621;28;20072;-71
2021/06/07 10:33:42;;;;;;;5.82;2.88;;;;;;;;;;5100781;28;20020;-72
2021/06/07 10:36:23;;;;;;;6.35;2.80;;;;;;;;;;5089510;28;20032;-70
2021/06/07 10:38:50;;;;;;;3.55;2.70;;;;;;;;;;5096608;28;20031;-71
2021/06/07 10:41:16;;;;;;;3.65;2.90;;;;;;;;;;5099937;28;20035;-71
2021/06/07 10:44:01;;;;;;;3.83;3.03;;;;;;;;;;5099473;28;20028;-74
2021/06/07 10:46:32;;;;;;;4.15;2.83;;;;;;;;;;5095040;28;20085;-74
2021/06/07 10:48:59;;;;;;;4.43;2.97;;;;;;;;;;5087868;28;20099;-72
2021/06/07 10:51:29;;;;;;;4.07;2.72;;;;;;;;;;5105844;28;20023;-73
2021/06/07 10:54:15;;;;;;;4.55;2.60;;;;;;;;;;5103571;28;20672;-72
2021/06/07 10:56:41;;;;;;;6.85;3.30;;;;;;;;;;5089386;28;20055;-72
2021/06/07 10:59:14;;;;;;;5.38;2.85;;;;;;;;;;5089087;28;20032;-72
2021/06/07 11:01:53;;;;;;;3.90;3.10;;;;;;;;;;5098038;28;20104;-72
2021/06/07 11:04:35;;;;;;;4.25;3.10;;;;;;;;;;5094282;28;20084;-71
2021/06/07 11:07:12;;;;;;;4.80;3.00;;;;;;;;;;5087766;28;20138;-72
2021/06/07 11:09:57;;;;;;;4.60;2.80;;;;;;;;;;5093957;28;20392;-73
2021/06/07 11:12:32;;;;;;;4.97;2.83;;;;;;;;;;5094060;28;20110;-72
2021/06/07 11:14:58;;;;;;;;;;;;;;;;;;5088197;28;20048;-72
2021/06/07 11:17:24;;;;;;;4.13;2.88;;;;;;;;;;5100082;28;19918;-74
2021/06/07 11:19:53;;;;;;;2.90;2.60;;;;;;;;;;5100776;28;20064;-74
2021/06/07 11:22:19;;;;;;;6.65;3.17;;;;;;;;;;5091527;28;20020;-73
2021/06/07 11:24:46;;;;;;;3.70;2.70;;;;;;;;;;5087655;28;20107;-72
2021/06/07 11:27:32;;;;;;;4.22;3.30;;;;;;;;;;5090181;28;20024;-72
2021/06/07 11:30:12;;;;;;;3.28;2.47;;;;;;;;;;5108528;28;20030;-72
2021/06/07 11:32:40;;;;;;;3.53;2.63;;;;;;;;;;5100509;28;20106;-72
2021/06/07 11:35:07;;;;;;;3.90;2.75;;;;;;;;;;5087916;28;20043;-74
2021/06/07 11:37:34;;;;;;;4.60;2.60;;;;;;;;;;5093174;28;20107;-73
2021/06/07 11:40:01;;;;;;;7.95;2.88;;;;;;;;;;5087826;28;20031;-73
2021/06/07 11:42:30;;;;;;;3.50;2.75;;;;;;;;;;5094978;28;20062;-74
2021/06/07 11:44:57;;;;;;;6.53;2.60;;;;;;;;;;5089790;28;20080;-73
2021/06/07 11:47:24;;;;;;;2.45;2.25;;;;;;;;;;5084690;28;20035;-73
2021/06/07 11:49:56;;;;;;;3.10;2.40;;;;;;;;;;5090568;28;20031;-75
2021/06/07 11:52:35;;;;;;;3.17;2.67;;;;;;;;;;5087042;28;20023;-72
2021/06/07 11:55:18;;;;;;;4.00;3.50;;;;;;;;;;5087525;28;20127;-72
2021/06/07 11:57:44;;;;;;;4.93;3.03;;;;;;;;;;5106963;28;20023;-71
2021/06/07 12:00:11;;;;;;;4.15;2.72;;;;;;;;;;5092170;28;20032;-73
2021/06/07 12:02:37;;;;;;;3.40;2.50;;;;;;;;;;5088055;28;20036;-72
2021/06/07 12:05:13;;;;;;;4.32;2.80;;;;;;;;;;5096709;28;20394;-73
2021/06/07 12:07:45;;;;;;;3.65;2.58;;;;;;;;;;5090552;28;20027;-72
2021/06/07 12:10:18;;;;;;;3.67;2.38;;;;;;;;;;5090496;28;20114;-73
2021/06/07 12:12:45;;;;;;;2.35;2.05;;;;;;;;;;5092522;28;20036;-72
2021/06/07 12:15:15;;;;;;;2.83;2.35;;;;;;;;;;5092927;28;20051;-73
2021/06/07 12:17:45;;;;;;;3.85;2.70;;;;;;;;;;5094396;28;20580;-73
2021/06/07 12:20:12;;;;;;;3.35;2.22;;;;;;;;;;5091226;28;20031;-71
2021/06/07 12:22:39;;;;;;;4.30;2.35;;;;;;;;;;5094686;28;20055;-72
2021/06/07 12:30:26;;;;;;;2.92;2.13;;;;;;;;;;5091052;28;20685;-73
2021/06/07 12:32:53;;;;;;;3.33;2.33;;;;;;;;;;5105918;28;20074;-72
2021/06/07 12:35:21;;;;;;;3.20;2.20;;;;;;;;;;5102026;28;20054;-72
2021/06/07 12:37:51;;;;;;;3.25;2.10;;;;;;;;;;5096703;28;20034;-73
2021/06/07 12:40:17;;;;;;;3.15;2.75;;;;;;;;;;5086545;28;20111;-73
2021/06/07 12:42:45;;;;;;;3.47;2.35;;;;;;;;;;5086241;28;20028;-72
2021/06/07 12:45:12;;;;;;;6.82;2.38;;;;;;;;;;5086968;28;20024;-73
2021/06/07 12:47:39;;;;;;;5.13;2.20;;;;;;;;;;5090667;28;20023;-74
2021/06/07 12:50:08;;;;;;;3.35;2.10;;;;;;;;;;5107085;28;20108;-72
2021/06/07 12:52:34;;;;;;;3.10;2.00;;;;;;;;;;5090367;28;20028;-73
2021/06/07 12:55:01;;;;;;;5.22;3.17;;;;;;;;;;5095651;28;20515;-72
2021/06/07 12:57:30;;;;;;;4.47;2.55;;;;;;;;;;5102695;28;20520;-72
2021/06/07 12:59:57;;;;;;;2.53;2.22;;;;;;;;;;5092794;28;20031;-73
2021/06/07 13:02:35;;;;;;;4.05;2.13;;;;;;;;;;5094975;28;20036;-73
2021/06/07 13:05:02;;;;;;;4.07;2.38;;;;;;;;;;5093049;28;20031;-73
2021/06/07 13:07:28;;;;;;;5.82;3.00;;;;;;;;;;5090672;28;20059;-74
2021/06/07 13:09:54;;;;;;;2.85;2.08;;;;;;;;;;5085863;28;20047;-72
2021/06/07 13:12:27;;;;;;;2.65;2.03;;;;;;;;;;5093233;28;20031;-72
2021/06/07 13:14:54;;;;;;;2.25;1.85;;;;;;;;;;5094144;28;20040;-73
2021/06/07 13:17:20;;;;;;;3.28;2.10;;;;;;;;;;5098960;28;20061;-72
2021/06/07 13:19:55;;;;;;;5.15;2.47;;;;;;;;;;5096487;28;20135;-74
2021/06/07 13:22:22;;;;;;;2.90;2.10;;;;;;;;;;5089747;28;20040;-73
2021/06/07 13:24:48;;;;;;;4.15;2.10;;;;;;;;;;5103463;28;20069;-74
2021/06/07 13:27:24;;;;;;;2.38;1.98;;;;;;;;;;5099046;28;20123;-72
2021/06/07 13:29:54;;;;;;;2.63;2.15;;;;;;;;;;5067924;28;20036;-72
2021/06/07 13:32:30;;;;;;;2.25;2.00;;;;;;;;;;5103504;28;20031;-74
2021/06/07 13:35:06;;;;;;;2.88;1.90;;;;;;;;;;5103746;28;20152;-74
2021/06/07 13:37:32;;;;;;;3.05;2.05;;;;;;;;;;5098179;28;20060;-72
2021/06/07 13:40:04;;;;;;;3.03;1.90;;;;;;;;;;5105111;28;20503;-73
2021/06/07 13:42:40;;;;;;;4.03;2.30;;;;;;;;;;5091627;28;20028;-73
2021/06/07 13:45:07;;;;;;;2.97;1.83;;;;;;;;;;5090384;28;20107;-73
2021/06/07 13:47:35;;;;;;;4.45;2.30;;;;;;;;;;5096747;28;20036;-71
2021/06/07 13:50:08;;;;;;;4.22;2.65;;;;;;;;;;5086065;28;20070;-72
2021/06/07 13:52:37;;;;;;;3.15;2.20;;;;;;;;;;5086088;28;20498;-72
2021/06/07 13:55:10;;;;;;;2.90;1.75;;;;;;;;;;5089485;28;20032;-72
2021/06/07 13:57:52;;;;;;;4.38;2.40;;;;;;;;;;5101071;28;20039;-71
2021/06/07 14:00:18;;;;;;;2.20;2.00;;;;;;;;;;5089056;28;20085;-73
2021/06/07 14:02:44;;;;;;;3.75;1.90;;;;;;;;;;5100476;28;20124;-70
2021/06/07 14:05:10;;;;;;;3.58;2.30;;;;;;;;;;5091025;28;20641;-73
2021/06/07 14:07:36;;;;;;;3.40;2.08;;;;;;;;;;5095664;28;20103;-72
2021/06/07 14:10:03;;;;;;;3.95;2.40;;;;;;;;;;5089488;28;20210;-72
2021/06/07 14:12:29;;;;;;;3.15;2.05;;;;;;;;;;5087559;28;20580;-72
2021/06/07 14:14:55;;;;;;;2.80;2.30;;;;;;;;;;5099873;28;20047;-72
2021/06/07 14:17:21;;;;;;;3.40;2.30;;;;;;;;;;5102326;28;20028;-72
2021/06/07 14:19:47;;;;;;;3.20;2.10;;;;;;;;;;5101338;28;20591;-72
2021/06/07 14:24:41;;;;;;;4.18;2.53;;;;;;;;;;5099223;28;20498;-72
2021/06/07 14:27:08;;;;;;;2.45;2.03;;;;;;;;;;5089184;28;20039;-71
2021/06/07 14:29:36;;;;;;;2.95;2.05;;;;;;;;;;5089194;28;20039;-71
2021/06/07 14:32:03;;;;;;;2.88;2.28;;;;;;;;;;5083744;28;20394;-72
2021/06/07 14:34:30;;;;;;;4.43;2.40;;;;;;;;;;5088899;28;20521;-72
2021/06/07 14:36:59;;;;;;;2.78;2.00;;;;;;;;;;5094478;28;20120;-72
2021/06/07 14:39:25;;;;;;;4.43;2.10;;;;;;;;;;5101452;28;20031;-71
2021/06/07 14:41:52;;;;;;;3.75;2.30;;;;;;;;;;5088614;28;20039;-71
2021/06/07 14:44:18;;;;;;;3.58;2.10;;;;;;;;;;5095361;27;20120;-71
2021/06/07 14:46:45;;;;;;;3.10;1.98;;;;;;;;;;5110053;27;20104;-70
2021/06/07 14:49:11;;;;;;;2.75;2.13;;;;;;;;;;5088051;28;20031;-71
2021/06/07 14:51:37;;;;;;;2.95;2.00;;;;;;;;;;5091564;28;20423;-72
2021/06/07 14:54:03;;;;;;;3.30;2.60;;;;;;;;;;5101806;28;20034;-70